Time;durP1;ratioP1;P1;durP2;ratioP2;P2;SDS_P1;SDS_P2;PMS_P1;PMS_P2;Temp;Humidity;BMP_temperature;BMP_pressure;BME280_temperature;BME280_humidity;BME280_pressure;Samples;Min_cycle;Max_cycle;Signal;HPM_P1;HPM_P2
2023/05/21 00:02:05;;;;;;;5.93;4.55;;;15.70;99.90;;;;;;4976032;28;20187;-65
2023/05/21 00:04:35;;;;;;;5.18;3.97;;;15.70;99.90;;;;;;4981561;28;20211;-66
2023/05/21 00:07:00;;;;;;;4.35;3.88;;;15.70;99.90;;;;;;4977174;28;20183;-66
2023/05/21 00:09:26;;;;;;;6.50;4.63;;;15.60;99.90;;;;;;4983646;28;20267;-64
2023/05/21 00:11:52;;;;;;;5.20;4.28;;;15.60;99.90;;;;;;4973652;28;20187;-67
2023/05/21 00:14:17;;;;;;;5.07;4.05;;;15.60;99.90;;;;;;4962070;28;20172;-66
2023/05/21 00:16:45;;;;;;;5.40;4.53;;;15.60;99.90;;;;;;4980296;28;20188;-65
2023/05/21 00:19:13;;;;;;;5.80;4.78;;;15.60;99.90;;;;;;4984061;28;20191;-65
2023/05/21 00:21:39;;;;;;;8.05;5.03;;;15.60;99.90;;;;;;4975775;28;20180;-64
2023/05/21 00:24:08;;;;;;;6.15;4.53;;;15.60;99.90;;;;;;4975797;28;20190;-66
2023/05/21 00:26:41;;;;;;;6.60;4.40;;;15.60;99.90;;;;;;4982655;28;20199;-65
2023/05/21 00:29:07;;;;;;;5.38;4.53;;;15.60;99.90;;;;;;4985424;28;20250;-65
2023/05/21 00:31:35;;;;;;;6.35;5.22;;;15.60;99.90;;;;;;4975356;28;20196;-65
2023/05/21 00:34:03;;;;;;;5.30;4.45;;;15.60;99.90;;;;;;4981751;28;20194;-65
2023/05/21 00:36:29;;;;;;;7.75;4.80;;;15.60;99.90;;;;;;4967288;28;20184;-65
2023/05/21 00:38:55;;;;;;;6.43;4.45;;;15.60;99.90;;;;;;4975303;28;20211;-65
2023/05/21 00:41:24;;;;;;;6.28;4.40;;;15.50;99.90;;;;;;4968995;28;20180;-65
2023/05/21 00:43:54;;;;;;;6.20;4.38;;;15.50;99.90;;;;;;4977115;28;20216;-65
2023/05/21 00:46:21;;;;;;;6.93;4.85;;;15.50;99.90;;;;;;4997183;28;20207;-65
2023/05/21 00:48:48;;;;;;;5.10;4.47;;;15.50;99.90;;;;;;4973541;28;20192;-64
2023/05/21 00:51:17;;;;;;;5.82;4.88;;;15.50;99.90;;;;;;4975451;28;20208;-65
2023/05/21 00:53:44;;;;;;;5.90;4.88;;;15.50;99.90;;;;;;4972026;28;20190;-65
2023/05/21 00:56:12;;;;;;;7.05;5.10;;;15.50;99.90;;;;;;4975265;28;20177;-65
2023/05/21 00:58:41;;;;;;;6.40;5.03;;;15.50;99.90;;;;;;4975645;28;20216;-64
2023/05/21 01:01:12;;;;;;;6.53;4.88;;;15.50;99.90;;;;;;4974449;28;20184;-59
2023/05/21 01:03:40;;;;;;;7.20;5.43;;;15.50;99.90;;;;;;4976274;28;20187;-65
2023/05/21 01:06:13;;;;;;;5.93;4.70;;;15.50;99.90;;;;;;4975230;28;20230;-65
2023/05/21 01:08:40;;;;;;;6.95;5.43;;;15.50;99.90;;;;;;4984983;28;20183;-65
2023/05/21 01:11:09;;;;;;;6.07;4.88;;;15.50;99.90;;;;;;4984434;28;20208;-64
2023/05/21 01:13:40;;;;;;;6.63;5.13;;;15.40;99.90;;;;;;4991824;28;20231;-65
2023/05/21 01:16:12;;;;;;;6.57;5.07;;;15.40;99.90;;;;;;5006349;23;20234;-65
2023/05/21 01:18:42;;;;;;;6.45;5.43;;;15.40;99.90;;;;;;4956001;28;20185;-65
2023/05/21 01:21:08;;;;;;;5.72;4.95;;;15.40;99.90;;;;;;4944699;28;20237;-65
2023/05/21 01:23:34;;;;;;;6.57;4.93;;;15.40;99.90;;;;;;4953515;29;20260;-66
2023/05/21 01:26:00;;;;;;;6.32;5.50;;;15.40;99.90;;;;;;4950274;29;20361;-65
2023/05/21 01:28:25;;;;;;;5.93;5.22;;;15.40;99.90;;;;;;4956023;29;20212;-64
2023/05/21 01:30:54;;;;;;;7.07;4.50;;;15.40;99.90;;;;;;4955689;28;20235;-64
2023/05/21 01:33:27;;;;;;;7.55;5.70;;;15.40;99.90;;;;;;4955517;28;20211;-65
2023/05/21 01:36:04;;;;;;;8.63;5.68;;;15.40;99.90;;;;;;4955737;28;20169;-65
2023/05/21 01:38:58;;;;;;;6.30;5.10;;;15.30;99.90;;;;;;4953804;29;20212;-65
2023/05/21 01:41:26;;;;;;;6.88;5.13;;;15.30;99.90;;;;;;4958386;28;20185;-64
2023/05/21 01:43:55;;;;;;;7.28;5.63;;;15.30;99.90;;;;;;4940696;29;20169;-65
2023/05/21 01:46:23;;;;;;;8.60;5.85;;;15.30;99.90;;;;;;4966010;28;20270;-65
2023/05/21 01:48:51;;;;;;;7.22;5.55;;;15.30;99.90;;;;;;4956656;29;20174;-66
2023/05/21 01:51:17;;;;;;;7.63;5.50;;;15.30;99.90;;;;;;4959298;29;20208;-65
2023/05/21 01:53:43;;;;;;;7.35;5.63;;;15.30;99.90;;;;;;4950552;28;20193;-61
2023/05/21 01:56:10;;;;;;;7.28;5.55;;;15.20;99.90;;;;;;4940386;29;20182;-65
2023/05/21 01:58:36;;;;;;;6.72;5.40;;;15.20;99.90;;;;;;4956827;29;20244;-64
2023/05/21 02:01:04;;;;;;;8.30;5.43;;;15.20;99.90;;;;;;4940220;29;20213;-64
2023/05/21 02:03:30;;;;;;;5.80;4.97;;;15.20;99.90;;;;;;4950030;29;20193;-67
2023/05/21 02:05:56;;;;;;;7.18;5.57;;;15.10;99.90;;;;;;4940392;29;20276;-64
2023/05/21 02:08:22;;;;;;;8.35;5.80;;;15.10;99.90;;;;;;4946414;29;20189;-64
2023/05/21 02:10:48;;;;;;;6.65;5.45;;;15.10;99.90;;;;;;4948564;29;20209;-64
2023/05/21 02:13:14;;;;;;;7.05;5.57;;;15.10;99.90;;;;;;4959035;29;20212;-64
2023/05/21 02:15:41;;;;;;;6.10;5.28;;;15.10;99.90;;;;;;4968181;28;20189;-62
2023/05/21 02:18:08;;;;;;;6.38;5.30;;;15.10;99.90;;;;;;4955456;28;20174;-65
2023/05/21 02:20:34;;;;;;;6.38;5.10;;;15.10;99.90;;;;;;4945479;29;20200;-65
2023/05/21 02:22:59;;;;;;;7.60;5.32;;;15.00;99.90;;;;;;4958937;29;20268;-65
2023/05/21 02:25:25;;;;;;;5.88;4.75;;;15.00;99.90;;;;;;4948412;29;20189;-64
2023/05/21 02:27:52;;;;;;;6.30;4.95;;;15.00;99.90;;;;;;4940260;29;20216;-64
2023/05/21 02:30:18;;;;;;;7.35;5.32;;;15.00;99.90;;;;;;4957636;28;20197;-64
2023/05/21 02:32:48;;;;;;;6.93;5.47;;;15.00;99.90;;;;;;4970206;28;20216;-65
2023/05/21 02:35:14;;;;;;;7.78;5.75;;;15.00;99.90;;;;;;4951503;29;20205;-65
2023/05/21 02:37:45;;;;;;;9.02;7.07;;;15.00;99.90;;;;;;4940337;29;20173;-65
2023/05/21 02:40:11;;;;;;;7.47;6.03;;;15.00;99.90;;;;;;4946457;29;20409;-65
2023/05/21 02:42:40;;;;;;;7.05;5.90;;;14.90;99.90;;;;;;4958728;28;20209;-65
2023/05/21 02:45:11;;;;;;;6.85;5.78;;;14.90;99.90;;;;;;4950247;28;20187;-67
2023/05/21 02:47:41;;;;;;;7.60;5.65;;;14.90;99.90;;;;;;4945494;29;20217;-64
2023/05/21 02:50:07;;;;;;;7.30;5.40;;;14.90;99.90;;;;;;4946905;29;20192;-60
2023/05/21 02:52:33;;;;;;;7.00;5.60;;;14.80;99.90;;;;;;4958229;28;20196;-64
2023/05/21 02:55:01;;;;;;;7.22;5.60;;;14.80;99.90;;;;;;4944420;28;20201;-62
2023/05/21 02:57:26;;;;;;;8.32;6.25;;;14.80;99.90;;;;;;4950404;29;20180;-62
2023/05/21 02:59:54;;;;;;;10.27;6.18;;;14.80;99.90;;;;;;4943009;29;20188;-63
2023/05/21 03:02:20;;;;;;;7.70;6.25;;;14.80;99.90;;;;;;4955417;28;20228;-64
2023/05/21 03:04:46;;;;;;;9.20;5.80;;;14.80;99.90;;;;;;4942211;29;20220;-64
2023/05/21 03:07:13;;;;;;;8.25;5.95;;;14.80;99.90;;;;;;4957994;28;20191;-64
2023/05/21 03:09:41;;;;;;;9.88;6.07;;;14.80;99.90;;;;;;4957878;28;20215;-64
2023/05/21 03:12:08;;;;;;;8.20;6.15;;;14.80;99.90;;;;;;4957018;28;20189;-65
2023/05/21 03:14:34;;;;;;;8.27;6.88;;;14.80;99.90;;;;;;4951771;29;20212;-64
2023/05/21 03:17:04;;;;;;;8.13;6.05;;;14.80;99.90;;;;;;4943575;29;20220;-64
2023/05/21 03:19:35;;;;;;;8.23;6.00;;;14.80;99.90;;;;;;4946289;29;20221;-62
2023/05/21 03:22:02;;;;;;;7.65;5.75;;;14.80;99.90;;;;;;4941584;29;20184;-64
2023/05/21 03:24:31;;;;;;;7.18;5.85;;;14.70;99.90;;;;;;4958070;28;20181;-63
2023/05/21 03:26:59;;;;;;;9.23;6.20;;;14.80;99.90;;;;;;4962859;28;20268;-65
2023/05/21 03:29:28;;;;;;;8.18;6.50;;;14.80;99.90;;;;;;4957181;29;20204;-64
2023/05/21 03:31:54;;;;;;;8.32;6.38;;;14.80;99.90;;;;;;4957870;29;20240;-65
2023/05/21 03:34:25;;;;;;;8.18;6.13;;;14.70;99.90;;;;;;4949098;28;20177;-65
2023/05/21 03:36:53;;;;;;;9.25;6.63;;;14.80;99.90;;;;;;4940300;29;20197;-65
2023/05/21 03:39:19;;;;;;;10.10;6.65;;;14.80;99.90;;;;;;4957488;28;20195;-63
2023/05/21 03:41:47;;;;;;;8.85;6.15;;;14.80;99.90;;;;;;4948536;28;20220;-65
2023/05/21 03:44:15;;;;;;;8.18;5.97;;;14.80;99.90;;;;;;4941787;29;20177;-65
2023/05/21 03:46:44;;;;;;;9.98;6.97;;;14.80;99.90;;;;;;4944553;29;20265;-65
2023/05/21 03:49:12;;;;;;;8.23;6.70;;;14.80;99.90;;;;;;4956162;28;20212;-65
2023/05/21 03:51:38;;;;;;;10.00;7.32;;;14.80;99.90;;;;;;4957297;28;20177;-66
2023/05/21 03:54:04;;;;;;;9.45;7.18;;;14.70;99.90;;;;;;4950615;28;20173;-65
2023/05/21 03:56:30;;;;;;;9.10;7.30;;;14.80;99.90;;;;;;4938433;29;20202;-64
2023/05/21 03:58:55;;;;;;;10.13;7.03;;;14.80;99.90;;;;;;4945746;29;20184;-66
2023/05/21 04:01:21;;;;;;;9.05;6.65;;;14.80;99.90;;;;;;4941088;29;20181;-65
2023/05/21 04:03:47;;;;;;;9.50;6.90;;;14.80;99.90;;;;;;4937903;29;20205;-64
2023/05/21 04:06:15;;;;;;;9.05;6.53;;;14.80;99.90;;;;;;4954141;28;20272;-64
2023/05/21 04:08:41;;;;;;;8.93;6.45;;;14.80;99.90;;;;;;4956910;28;20177;-65
2023/05/21 04:11:07;;;;;;;7.50;6.40;;;14.80;99.90;;;;;;4956270;28;20271;-64
2023/05/21 04:13:32;;;;;;;7.95;6.50;;;14.80;99.90;;;;;;4951333;29;20188;-63
2023/05/21 04:15:58;;;;;;;8.85;6.05;;;14.90;99.90;;;;;;4946550;29;20203;-65
2023/05/21 04:18:26;;;;;;;7.60;6.13;;;14.90;99.90;;;;;;4956313;29;20188;-64
2023/05/21 04:20:52;;;;;;;10.23;7.10;;;14.90;99.90;;;;;;4941586;28;20177;-65
2023/05/21 04:23:18;;;;;;;8.60;6.57;;;14.90;99.90;;;;;;4952531;29;20180;-65
2023/05/21 04:25:49;;;;;;;7.60;6.50;;;14.90;99.90;;;;;;4948989;29;20186;-65
2023/05/21 04:28:18;;;;;;;8.48;6.57;;;14.90;99.90;;;;;;4955520;29;20185;-64
2023/05/21 04:30:48;;;;;;;9.82;7.70;;;14.90;99.90;;;;;;4941302;29;20216;-64
2023/05/21 04:33:16;;;;;;;8.20;6.28;;;14.90;99.90;;;;;;4951155;29;20173;-65
2023/05/21 04:35:46;;;;;;;8.70;6.15;;;14.90;99.90;;;;;;4954812;29;20181;-65
2023/05/21 04:38:18;;;;;;;8.27;6.68;;;14.80;99.90;;;;;;4937452;29;20253;-64
2023/05/21 04:40:51;;;;;;;8.43;6.43;;;14.80;99.90;;;;;;4950325;29;20211;-65
2023/05/21 04:43:17;;;;;;;7.78;6.18;;;14.80;99.90;;;;;;4955641;29;20180;-63
2023/05/21 04:45:42;;;;;;;7.78;6.55;;;14.80;99.90;;;;;;4953282;28;20216;-65
2023/05/21 04:48:08;;;;;;;7.88;6.03;;;14.70;99.90;;;;;;4953520;29;20182;-65
2023/05/21 04:50:34;;;;;;;7.10;5.90;;;14.80;99.90;;;;;;4947156;29;20209;-65
2023/05/21 04:53:02;;;;;;;8.18;6.43;;;14.80;99.90;;;;;;4937730;29;20181;-65
2023/05/21 04:55:27;;;;;;;7.82;6.30;;;14.80;99.90;;;;;;4955428;29;20259;-63
2023/05/21 04:57:53;;;;;;;7.30;6.22;;;14.80;99.90;;;;;;4945890;29;20181;-64
2023/05/21 05:00:21;;;;;;;8.30;6.28;;;14.80;99.90;;;;;;4953779;29;20196;-64
2023/05/21 05:02:47;;;;;;;9.98;6.38;;;14.90;99.90;;;;;;4954183;29;20205;-65
2023/05/21 05:05:12;;;;;;;7.28;6.22;;;14.80;99.90;;;;;;4940565;29;20184;-65
2023/05/21 05:07:38;;;;;;;7.78;6.22;;;14.80;99.90;;;;;;4938058;29;20209;-65
2023/05/21 05:10:04;;;;;;;8.68;6.68;;;14.90;99.90;;;;;;4956166;29;20200;-66
2023/05/21 05:12:29;;;;;;;8.52;5.97;;;14.90;99.90;;;;;;4944512;29;20176;-64
2023/05/21 05:14:55;;;;;;;8.35;6.30;;;14.90;99.90;;;;;;4955146;29;20187;-65
2023/05/21 05:17:21;;;;;;;7.07;5.65;;;14.90;99.90;;;;;;4946718;28;20201;-65
2023/05/21 05:19:51;;;;;;;7.93;5.82;;;15.00;99.90;;;;;;4941008;29;20232;-66
2023/05/21 05:22:17;;;;;;;7.25;5.85;;;15.00;99.90;;;;;;4940864;29;20201;-66
2023/05/21 05:24:45;;;;;;;7.13;6.22;;;15.00;99.90;;;;;;4941103;29;20240;-64
2023/05/21 05:27:11;;;;;;;7.88;5.88;;;15.00;99.90;;;;;;4940962;29;20430;-65
2023/05/21 05:29:39;;;;;;;6.40;5.50;;;15.00;99.90;;;;;;4940602;29;20201;-65
2023/05/21 05:32:05;;;;;;;8.52;5.53;;;15.10;99.90;;;;;;4975547;28;20271;-66
2023/05/21 05:34:31;;;;;;;6.82;5.75;;;15.10;99.90;;;;;;4959643;29;20196;-63
2023/05/21 05:36:56;;;;;;;7.05;5.30;;;15.10;99.90;;;;;;4960118;29;20180;-64
2023/05/21 05:39:27;;;;;;;6.90;5.68;;;15.10;99.90;;;;;;4959967;29;20173;-65
2023/05/21 05:41:55;;;;;;;6.68;5.70;;;15.10;99.90;;;;;;4959627;29;20201;-65
2023/05/21 05:44:21;;;;;;;7.13;5.63;;;15.20;99.90;;;;;;4959524;29;20180;-61
2023/05/21 05:46:48;;;;;;;7.05;5.75;;;15.20;99.90;;;;;;4959034;29;20196;-65
2023/05/21 05:49:16;;;;;;;6.60;5.38;;;15.20;99.90;;;;;;4959865;29;20210;-67
2023/05/21 05:51:42;;;;;;;8.82;5.93;;;15.30;99.90;;;;;;4957935;29;20425;-65
2023/05/21 05:54:07;;;;;;;6.97;5.55;;;15.30;99.90;;;;;;4959412;29;20279;-61
2023/05/21 05:56:33;;;;;;;7.10;5.63;;;15.40;99.90;;;;;;4959684;29;20183;-65
2023/05/21 05:58:59;;;;;;;7.40;5.75;;;15.40;99.90;;;;;;4959836;29;20168;-66
2023/05/21 06:01:30;;;;;;;8.07;6.18;;;15.50;99.90;;;;;;4959247;29;20195;-65
2023/05/21 06:04:01;;;;;;;6.32;5.60;;;15.50;99.90;;;;;;4959497;28;20277;-64
2023/05/21 06:06:26;;;;;;;8.00;6.25;;;15.50;99.90;;;;;;4959548;29;20197;-65
2023/05/21 06:08:54;;;;;;;7.78;6.03;;;15.70;99.90;;;;;;4959389;29;20291;-66
2023/05/21 06:11:22;;;;;;;6.60;5.85;;;15.70;99.90;;;;;;4959225;29;20206;-65
2023/05/21 06:13:48;;;;;;;6.40;5.40;;;15.70;99.90;;;;;;4959224;28;20176;-65
2023/05/21 06:16:14;;;;;;;8.07;6.03;;;15.80;99.90;;;;;;4948859;29;20190;-66
2023/05/21 06:18:40;;;;;;;6.75;5.50;;;15.90;99.90;;;;;;4950116;29;20204;-65
2023/05/21 06:21:08;;;;;;;6.40;5.55;;;16.00;99.90;;;;;;4954142;29;20192;-65
2023/05/21 06:23:36;;;;;;;9.40;5.88;;;16.10;99.90;;;;;;4946909;29;20258;-65
2023/05/21 06:26:03;;;;;;;7.57;5.57;;;16.10;99.90;;;;;;4940039;29;20264;-67
2023/05/21 06:28:30;;;;;;;8.27;5.75;;;16.20;99.90;;;;;;4938754;29;20185;-65
2023/05/21 06:30:58;;;;;;;6.32;5.55;;;16.30;99.90;;;;;;4939481;29;20213;-66
2023/05/21 06:33:26;;;;;;;6.38;5.07;;;16.30;99.90;;;;;;4940234;29;20173;-65
2023/05/21 06:35:52;;;;;;;6.88;5.22;;;16.30;99.90;;;;;;4958615;28;20204;-65
2023/05/21 06:38:17;;;;;;;6.97;5.25;;;16.40;99.90;;;;;;4958449;29;20192;-66
2023/05/21 06:40:46;;;;;;;6.57;5.32;;;16.50;99.90;;;;;;4958665;28;20200;-65
2023/05/21 06:43:12;;;;;;;6.18;5.43;;;16.50;99.90;;;;;;4957614;29;20281;-65
2023/05/21 06:45:38;;;;;;;7.32;5.88;;;16.50;99.90;;;;;;4958597;29;20208;-66
2023/05/21 06:48:03;;;;;;;6.50;5.55;;;16.60;99.90;;;;;;4956151;28;20216;-65
2023/05/21 06:50:31;;;;;;;6.78;5.85;;;16.70;99.90;;;;;;4955955;28;20193;-65
2023/05/21 06:53:00;;;;;;;6.88;5.68;;;16.70;99.90;;;;;;4953881;29;20230;-63
2023/05/21 06:55:25;;;;;;;7.68;5.47;;;16.80;99.90;;;;;;4954294;28;20268;-64
2023/05/21 06:57:51;;;;;;;6.93;5.47;;;16.80;99.90;;;;;;4957211;29;20356;-63
2023/05/21 07:00:19;;;;;;;6.72;5.25;;;16.90;99.90;;;;;;4955802;29;20294;-65
2023/05/21 07:02:44;;;;;;;9.15;7.05;;;17.00;99.90;;;;;;4955222;29;20180;-65
2023/05/21 07:05:10;;;;;;;7.43;6.22;;;17.00;99.90;;;;;;4956406;29;20196;-66
2023/05/21 07:07:36;;;;;;;7.82;5.97;;;17.10;99.90;;;;;;4957082;28;20181;-65
2023/05/21 07:10:02;;;;;;;6.93;5.88;;;17.20;99.90;;;;;;4951903;28;20200;-65
2023/05/21 07:12:30;;;;;;;7.65;5.60;;;17.30;99.90;;;;;;4954727;29;20172;-66
2023/05/21 07:14:56;;;;;;;6.75;5.60;;;17.40;99.90;;;;;;4943945;28;20223;-65
2023/05/21 07:17:24;;;;;;;6.65;5.65;;;17.50;99.90;;;;;;4955050;29;20236;-64
2023/05/21 07:19:52;;;;;;;8.60;6.55;;;17.60;99.90;;;;;;4952441;29;20187;-67
2023/05/21 07:22:18;;;;;;;10.38;6.18;;;17.60;99.90;;;;;;4952997;29;20185;-67
2023/05/21 07:24:43;;;;;;;8.02;6.07;;;17.70;99.90;;;;;;4946076;29;20185;-66
2023/05/21 07:27:09;;;;;;;8.73;6.07;;;17.70;99.90;;;;;;4955318;28;20189;-62
2023/05/21 07:29:35;;;;;;;8.10;5.88;;;17.80;99.90;;;;;;4954843;29;20212;-66
2023/05/21 07:32:03;;;;;;;9.00;5.80;;;17.90;99.90;;;;;;4955360;29;20180;-64
2023/05/21 07:34:29;;;;;;;6.70;5.93;;;18.00;99.90;;;;;;4949397;29;20180;-66
2023/05/21 07:36:57;;;;;;;6.55;5.68;;;18.10;99.90;;;;;;4950834;28;20207;-66
2023/05/21 07:39:23;;;;;;;7.45;5.68;;;18.20;99.90;;;;;;4938731;29;20217;-66
2023/05/21 07:41:50;;;;;;;8.70;6.85;;;18.20;99.90;;;;;;4949983;29;20271;-65
2023/05/21 07:44:16;;;;;;;8.30;6.25;;;18.30;99.90;;;;;;4951096;29;20181;-65
2023/05/21 07:46:46;;;;;;;7.55;6.40;;;18.40;99.90;;;;;;4950704;29;20199;-65
2023/05/21 07:49:15;;;;;;;7.63;6.15;;;18.50;99.90;;;;;;4944289;29;20284;-66
2023/05/21 07:51:42;;;;;;;7.97;6.15;;;18.50;99.90;;;;;;4957058;28;20180;-65
2023/05/21 07:54:12;;;;;;;8.32;6.50;;;18.60;99.90;;;;;;4952586;29;20173;-64
2023/05/21 07:56:38;;;;;;;8.07;6.50;;;18.70;99.90;;;;;;4950102;29;20194;-66
2023/05/21 07:59:06;;;;;;;8.40;7.10;;;18.80;99.90;;;;;;4957298;29;20185;-66
2023/05/21 08:01:32;;;;;;;9.57;6.93;;;18.90;99.90;;;;;;4954384;29;20211;-66
2023/05/21 08:04:04;;;;;;;9.23;6.63;;;18.90;99.90;;;;;;4955934;29;20177;-66
2023/05/21 08:06:30;;;;;;;10.65;6.90;;;19.00;99.90;;;;;;4953913;29;20275;-66
2023/05/21 08:08:56;;;;;;;8.93;7.10;;;19.00;99.90;;;;;;4949479;28;20215;-67
2023/05/21 08:11:25;;;;;;;8.10;7.07;;;19.00;99.90;;;;;;4951754;29;20304;-66
2023/05/21 08:13:51;;;;;;;11.57;7.82;;;18.90;99.90;;;;;;4949576;28;20279;-66
2023/05/21 08:16:16;;;;;;;8.40;6.90;;;18.90;99.90;;;;;;4946848;29;20240;-65
2023/05/21 08:18:42;;;;;;;7.38;6.15;;;18.90;99.90;;;;;;4956280;29;20208;-65
2023/05/21 08:21:08;;;;;;;8.40;6.32;;;18.90;99.90;;;;;;4966808;28;20472;-65
2023/05/21 08:23:36;;;;;;;9.18;6.82;;;18.90;99.90;;;;;;4956601;28;20194;-65
2023/05/21 08:26:02;;;;;;;8.30;6.80;;;18.90;99.90;;;;;;4953685;29;20180;-64
2023/05/21 08:28:29;;;;;;;7.25;6.05;;;18.80;99.90;;;;;;4942700;29;20192;-64
2023/05/21 08:30:54;;;;;;;8.02;6.57;;;18.80;99.90;;;;;;4953572;28;20205;-64
2023/05/21 08:33:20;;;;;;;8.98;6.78;;;18.80;99.90;;;;;;4970427;28;20262;-65
2023/05/21 08:35:45;;;;;;;9.43;7.20;;;18.80;99.90;;;;;;4955682;29;20189;-64
2023/05/21 08:38:11;;;;;;;9.05;6.72;;;18.80;99.90;;;;;;4948640;28;20285;-64
2023/05/21 08:40:37;;;;;;;8.73;6.57;;;18.90;99.90;;;;;;4953437;29;20209;-62
2023/05/21 08:43:02;;;;;;;7.47;6.63;;;18.90;99.90;;;;;;4946367;29;20185;-64
2023/05/21 08:45:36;;;;;;;9.25;7.05;;;18.90;99.90;;;;;;4948659;28;20259;-65
2023/05/21 08:48:05;;;;;;;7.95;6.53;;;19.00;99.90;;;;;;4956229;28;20185;-64
2023/05/21 08:50:31;;;;;;;7.60;6.18;;;19.00;99.90;;;;;;4952283;28;20421;-63
2023/05/21 08:52:57;;;;;;;8.48;6.32;;;19.10;99.90;;;;;;4956595;28;20255;-64
2023/05/21 08:55:24;;;;;;;8.98;6.75;;;19.20;99.90;;;;;;4956238;29;20207;-64
2023/05/21 08:57:53;;;;;;;7.75;6.38;;;19.20;99.90;;;;;;4953853;29;20185;-63
2023/05/21 09:00:24;;;;;;;8.45;6.35;;;19.30;99.90;;;;;;4953002;28;20196;-63
2023/05/21 09:02:53;;;;;;;7.45;6.43;;;19.40;99.90;;;;;;4954356;28;20216;-65
2023/05/21 09:05:19;;;;;;;7.55;6.32;;;19.60;99.90;;;;;;4955847;29;20231;-65
2023/05/21 09:08:04;;;;;;;8.00;6.25;;;19.70;99.90;;;;;;4953205;29;20193;-65
2023/05/21 09:10:45;;;;;;;7.75;6.40;;;19.80;99.90;;;;;;4955759;28;20279;-65
2023/05/21 09:13:11;;;;;;;8.00;6.22;;;20.00;99.90;;;;;;4954843;29;20177;-63
2023/05/21 09:15:37;;;;;;;7.97;6.45;;;20.10;99.90;;;;;;4951780;28;20202;-64
2023/05/21 09:18:05;;;;;;;7.63;6.60;;;20.20;99.90;;;;;;4943305;29;20201;-65
2023/05/21 09:20:30;;;;;;;9.98;6.10;;;20.30;99.90;;;;;;4956849;28;20208;-64
2023/05/21 09:23:01;;;;;;;7.13;6.40;;;20.30;99.90;;;;;;4952494;29;20204;-65
2023/05/21 09:25:32;;;;;;;7.30;6.20;;;20.40;99.90;;;;;;4957623;28;20232;-65
2023/05/21 09:28:00;;;;;;;8.40;7.13;;;20.50;99.90;;;;;;4949209;28;20196;-66
2023/05/21 09:30:27;;;;;;;8.38;6.68;;;20.50;99.90;;;;;;4946658;28;20219;-63
2023/05/21 09:32:56;;;;;;;8.38;6.70;;;20.60;99.90;;;;;;4956714;28;20181;-64
2023/05/21 09:35:24;;;;;;;9.25;7.55;;;20.60;99.90;;;;;;4956053;29;20181;-66
2023/05/21 09:37:56;;;;;;;8.20;6.32;;;20.70;99.90;;;;;;4955056;28;20324;-65
2023/05/21 09:40:22;;;;;;;9.35;7.85;;;20.80;99.90;;;;;;4940999;29;20204;-63
2023/05/21 09:42:54;;;;;;;10.00;7.53;;;20.80;99.90;;;;;;4948847;29;20499;-65
2023/05/21 09:45:21;;;;;;;8.93;7.03;;;20.90;99.90;;;;;;4951181;29;20185;-64
2023/05/21 09:47:48;;;;;;;7.97;6.60;;;21.00;99.90;;;;;;4952758;28;20194;-64
2023/05/21 09:50:26;;;;;;;9.27;6.45;;;21.10;99.90;;;;;;4950718;28;20283;-64
2023/05/21 09:52:54;;;;;;;8.07;7.13;;;21.20;99.90;;;;;;4953543;28;20192;-62
2023/05/21 09:55:27;;;;;;;8.48;7.03;;;21.30;99.90;;;;;;4951684;28;20177;-64
2023/05/21 09:57:53;;;;;;;7.93;6.88;;;21.40;99.90;;;;;;4961844;28;20189;-64
2023/05/21 10:00:21;;;;;;;7.70;6.75;;;21.60;99.90;;;;;;4941537;29;20208;-64
2023/05/21 10:02:48;;;;;;;7.38;6.60;;;21.70;99.90;;;;;;4956259;28;20216;-64
2023/05/21 10:05:15;;;;;;;7.80;6.70;;;21.80;99.90;;;;;;4956612;29;20181;-65
2023/05/21 10:07:44;;;;;;;8.77;6.88;;;21.90;99.90;;;;;;4956940;28;20181;-65
2023/05/21 10:10:14;;;;;;;9.02;7.65;;;22.00;99.90;;;;;;4950700;29;20430;-64
2023/05/21 10:12:49;;;;;;;7.63;6.82;;;22.10;99.90;;;;;;4954470;29;20186;-65
2023/05/21 10:15:22;;;;;;;7.35;6.20;;;22.20;99.90;;;;;;4956934;28;20287;-63
2023/05/21 10:17:48;;;;;;;7.50;6.78;;;22.30;99.90;;;;;;4952698;29;20181;-63
2023/05/21 10:20:15;;;;;;;8.07;7.05;;;22.40;99.90;;;;;;4957052;29;20191;-64
2023/05/21 10:22:41;;;;;;;7.38;6.53;;;22.50;99.90;;;;;;4950502;29;20196;-64
2023/05/21 10:25:07;;;;;;;9.20;7.28;;;22.50;99.90;;;;;;4958480;29;20188;-65
2023/05/21 10:27:34;;;;;;;8.98;7.05;;;22.70;99.90;;;;;;4947249;28;20209;-64
2023/05/21 10:30:03;;;;;;;7.32;6.35;;;22.90;99.90;;;;;;4941459;29;20294;-65
2023/05/21 10:32:30;;;;;;;7.78;6.93;;;23.10;99.90;;;;;;4958457;28;20177;-65
2023/05/21 10:34:56;;;;;;;7.45;6.55;;;23.40;99.90;;;;;;4951585;29;20201;-65
2023/05/21 10:37:25;;;;;;;7.55;6.57;;;23.70;99.90;;;;;;4941354;29;20186;-64
2023/05/21 10:39:54;;;;;;;7.75;6.95;;;23.90;99.90;;;;;;4956587;29;20269;-62
2023/05/21 10:42:45;;;;;;;7.88;6.88;;;24.20;99.90;;;;;;4958247;29;20545;-63
2023/05/21 10:45:47;;;;;;;7.15;6.28;;;24.30;99.90;;;;;;4953565;28;20181;-65
2023/05/21 10:48:51;;;;;;;7.35;6.63;;;24.50;99.90;;;;;;4965841;28;20202;-65
2023/05/21 10:51:25;;;;;;;7.65;6.75;;;24.70;99.90;;;;;;4957038;28;20208;-64
2023/05/21 10:54:29;;;;;;;6.35;5.72;;;24.80;99.90;;;;;;4956187;29;20180;-64
2023/05/21 10:57:20;;;;;;;8.30;6.50;;;25.00;99.90;;;;;;4935816;29;20219;-63
2023/05/21 10:59:49;;;;;;;8.02;6.45;;;25.20;99.90;;;;;;4957910;29;20184;-64
2023/05/21 11:02:18;;;;;;;6.70;5.90;;;25.40;99.90;;;;;;4957493;28;20177;-64
2023/05/21 11:04:47;;;;;;;7.45;6.28;;;25.50;99.90;;;;;;4958271;29;20275;-65
2023/05/21 11:07:23;;;;;;;7.47;6.68;;;25.70;99.90;;;;;;4957417;28;20173;-65
2023/05/21 11:10:11;;;;;;;10.13;7.03;;;25.80;99.90;;;;;;4955526;28;20224;-66
2023/05/21 11:13:06;;;;;;;6.82;6.13;;;25.90;99.90;;;;;;4955721;29;20267;-64
2023/05/21 11:15:58;;;;;;;6.75;5.88;;;26.00;99.90;;;;;;4953365;28;20292;-61
2023/05/21 11:18:32;;;;;;;6.90;6.20;;;26.00;99.90;;;;;;4957121;28;20462;-64
2023/05/21 11:21:05;;;;;;;6.75;6.05;;;26.10;99.90;;;;;;4941358;29;20188;-64
2023/05/21 11:23:49;;;;;;;8.27;6.70;;;26.20;99.90;;;;;;4957415;29;20208;-64
2023/05/21 11:26:21;;;;;;;7.55;6.20;;;26.20;99.90;;;;;;4958612;28;20177;-64
2023/05/21 11:29:10;;;;;;;8.52;6.72;;;26.10;99.90;;;;;;4949521;29;20189;-64
2023/05/21 11:31:43;;;;;;;10.32;6.65;;;26.10;99.90;;;;;;4968827;28;20216;-64
2023/05/21 11:34:28;;;;;;;8.23;6.47;;;26.00;99.90;;;;;;4957474;29;20173;-64
2023/05/21 11:37:19;;;;;;;8.40;6.97;;;25.90;99.90;;;;;;4940353;29;20173;-63
2023/05/21 11:39:48;;;;;;;6.43;5.80;;;25.90;99.90;;;;;;4954020;29;20192;-64
2023/05/21 11:42:53;;;;;;;6.93;6.07;;;25.90;99.90;;;;;;4968263;28;20323;-64
2023/05/21 11:45:27;;;;;;;8.85;7.05;;;26.10;99.90;;;;;;4953475;29;20226;-64
2023/05/21 11:47:54;;;;;;;6.90;6.22;;;26.30;99.90;;;;;;4953421;28;20185;-62
2023/05/21 11:50:20;;;;;;;7.60;6.82;;;26.40;99.90;;;;;;4957356;29;20211;-64
2023/05/21 11:52:47;;;;;;;7.20;6.50;;;26.50;99.90;;;;;;4956961;28;20201;-62
2023/05/21 11:55:20;;;;;;;8.15;6.90;;;26.70;99.90;;;;;;4956227;29;20173;-64
2023/05/21 11:57:47;;;;;;;6.90;6.07;;;26.80;99.90;;;;;;4957081;29;20185;-64
2023/05/21 12:00:14;;;;;;;8.32;6.63;;;26.80;99.90;;;;;;4955774;29;20271;-64
2023/05/21 12:02:46;;;;;;;6.97;6.28;;;26.90;99.90;;;;;;4954069;29;20185;-64
2023/05/21 12:05:12;;;;;;;6.85;6.13;;;26.90;99.90;;;;;;4955201;29;20187;-64
2023/05/21 12:07:41;;;;;;;6.47;5.85;;;26.90;99.90;;;;;;4956436;29;20217;-64
2023/05/21 12:10:09;;;;;;;6.93;6.22;;;26.90;99.90;;;;;;4955940;29;20291;-62
2023/05/21 12:12:38;;;;;;;7.40;6.30;;;27.10;99.90;;;;;;4946665;29;20196;-64
2023/05/21 12:15:06;;;;;;;7.55;6.75;;;27.20;99.90;;;;;;4949903;29;20184;-64
2023/05/21 12:17:32;;;;;;;9.27;6.97;;;27.30;99.90;;;;;;4942395;29;20476;-64
2023/05/21 12:20:01;;;;;;;6.82;6.13;;;27.40;99.90;;;;;;4966438;28;20184;-64
2023/05/21 12:22:29;;;;;;;6.30;5.70;;;27.40;99.90;;;;;;4942475;28;20213;-64
2023/05/21 12:24:56;;;;;;;6.45;5.85;;;27.40;99.90;;;;;;4952363;29;20228;-66
2023/05/21 12:27:27;;;;;;;6.78;6.13;;;27.40;99.90;;;;;;4955496;28;20204;-71
2023/05/21 12:29:53;;;;;;;7.30;6.45;;;27.30;99.90;;;;;;4955633;28;20222;-71
2023/05/21 12:32:20;;;;;;;7.05;5.80;;;27.30;99.90;;;;;;4958343;28;20183;-70
2023/05/21 12:34:53;;;;;;;6.38;5.78;;;27.30;99.90;;;;;;4953059;29;20196;-70
2023/05/21 12:37:23;;;;;;;6.82;6.13;;;27.40;99.90;;;;;;4943301;29;20182;-70
2023/05/21 12:39:54;;;;;;;6.13;5.47;;;27.50;99.90;;;;;;4948806;28;20188;-69
2023/05/21 12:42:34;;;;;;;6.82;6.13;;;27.60;99.90;;;;;;4952462;29;20193;-69
2023/05/21 12:45:05;;;;;;;7.32;6.55;;;27.80;99.90;;;;;;4954569;28;20184;-69
2023/05/21 12:47:32;;;;;;;7.03;6.20;;;27.80;99.90;;;;;;4951428;28;20181;-69
2023/05/21 12:50:03;;;;;;;7.47;6.57;;;27.90;99.90;;;;;;4938812;29;20205;-68
2023/05/21 12:52:32;;;;;;;7.38;6.47;;;28.00;99.90;;;;;;4946352;29;20178;-63
2023/05/21 12:55:00;;;;;;;7.88;6.35;;;28.10;99.90;;;;;;4950649;29;20177;-71